»·PEaware :: QXE1180 KSBA-KSJC

QXE1180 :: KSBA-KSJC

FLIGHT INFORMATION

Flight Status: Arrived
Operator:
Horizon Air
More flights by this operator :: More flights under this callsign
Pilot: Anonymous 10181 (10181)
Aircraft: DEHAVILLAND DASH 8 400
(DH8D)
More flights by this aircraft type
Origin: KSBA Santa Barbara Mun
United States
Destination: KSJC Mineta San Jose Intl
United States
More flights between these airports :: More routes between these airports
Route: +GVO T261 MQO T329 PRB TROXX SILCN4
File this flight plan on PilotEdge
Remarks: Happy Wednesday!
Altitude:
(Current/Filed)
20,000ft
Speed:
(Current/Filed)
330kts
Departed: 20-May-20 04:14 PM
Arrived: 20-May-20 05:11 PM
Distance/Time
Traveled:
204nm/0:57
Distance/Time
To Go:
Arrived

Flight Plot

Page will automatically refresh every two minutes.

Flight plan parsing failed; only flown route is shown


Map Options




Map Legend


Flown Route
Filed Route
Departure Airport
Arrival Airport
Navaid (VOR, NDB)
Fix

Horizontal Profiles

Position Reports

Time Latitude Longitude Heading Altitude Ground
Speed
20-May-20 15:37 34.425124 -119.837246 113 17ft 0kts
20-May-20 15:38 34.425124 -119.837246 113 17ft 0kts
20-May-20 15:39 34.425124 -119.837246 113 17ft 0kts
20-May-20 15:39 34.425124 -119.837246 113 17ft 0kts
20-May-20 15:41 34.425124 -119.837246 113 17ft 0kts
20-May-20 15:42 34.425124 -119.837246 113 17ft 0kts
20-May-20 15:42 34.425124 -119.837246 113 17ft 0kts
20-May-20 15:43 34.425124 -119.837246 113 17ft 0kts
20-May-20 15:45 34.425124 -119.837246 113 17ft 0kts
20-May-20 15:45 34.425124 -119.837246 113 17ft 0kts
20-May-20 15:46 34.425124 -119.837246 113 17ft 0kts
20-May-20 15:48 34.425124 -119.837246 113 17ft 0kts
20-May-20 15:48 34.425124 -119.837246 113 17ft 0kts
20-May-20 15:49 34.425124 -119.837246 113 17ft 0kts
20-May-20 15:50 34.425124 -119.837246 113 17ft 0kts
20-May-20 15:51 34.425124 -119.837246 113 17ft 0kts
20-May-20 15:52 34.425124 -119.837246 113 17ft 0kts
20-May-20 15:53 34.425124 -119.837246 113 17ft 0kts
20-May-20 15:54 34.425124 -119.837246 113 17ft 0kts
20-May-20 15:55 34.425124 -119.837246 113 17ft 0kts
20-May-20 15:56 34.425124 -119.837246 113 17ft 0kts
20-May-20 15:57 34.425124 -119.837246 113 17ft 0kts
20-May-20 15:58 34.425124 -119.837246 113 17ft 0kts
20-May-20 15:59 34.425124 -119.837246 113 17ft 0kts
20-May-20 16:00 34.425124 -119.837246 113 17ft 0kts
20-May-20 16:01 34.425124 -119.837246 113 17ft 0kts
20-May-20 16:02 34.425124 -119.837246 113 17ft 0kts
20-May-20 16:03 34.425124 -119.837246 113 17ft 0kts
20-May-20 16:04 34.425124 -119.837246 113 17ft 0kts
20-May-20 16:05 34.425116 -119.837235 121 17ft 0kts
20-May-20 16:06 34.425088 -119.837218 148 17ft 0kts
20-May-20 16:07 34.424998 -119.837167 165 17ft 4kts
20-May-20 16:08 34.426588 -119.838423 300 17ft 6kts
20-May-20 16:09 34.426621 -119.842806 267 17ft 16kts
20-May-20 16:10 34.426492 -119.848026 266 17ft 13kts
20-May-20 16:11 34.426393 -119.853144 267 17ft 7kts
20-May-20 16:12 34.426608 -119.854212 319 17ft 7kts
20-May-20 16:13 34.427681 -119.847490 87 18ft 103kts
20-May-20 16:14 34.418122 -119.801573 134 1895ft 167kts
20-May-20 16:15 34.375840 -119.756465 134 2952ft 248kts
20-May-20 16:16 34.316606 -119.718474 200 3299ft 255kts
20-May-20 16:17 34.291116 -119.784229 272 6033ft 235kts
20-May-20 16:18 34.303355 -119.860559 315 8342ft 239kts
20-May-20 16:19 34.357322 -119.915265 321 8479ft 279kts
20-May-20 16:20 34.413070 -119.971527 321 8096ft 248kts
20-May-20 16:21 34.464310 -120.023322 320 10241ft 233kts
20-May-20 16:22 34.513838 -120.073128 319 12287ft 234kts
20-May-20 16:23 34.564849 -120.122437 322 13981ft 237kts
20-May-20 16:24 34.617898 -120.170365 322 15446ft 239kts
20-May-20 16:25 34.671109 -120.219236 321 16787ft 241kts
20-May-20 16:26 34.724173 -120.268148 321 18067ft 239kts
20-May-20 16:27 34.776627 -120.316659 320 19262ft 237kts
20-May-20 16:28 34.829506 -120.365676 320 20004ft 250kts
20-May-20 16:29 34.887270 -120.419322 320 20049ft 274kts
20-May-20 16:30 34.949644 -120.477223 320 20047ft 289kts
20-May-20 16:31 35.014570 -120.537537 320 20048ft 298kts
20-May-20 16:32 35.080692 -120.599195 320 20050ft 302kts
20-May-20 16:33 35.147051 -120.661076 320 20053ft 304kts
20-May-20 16:34 35.213798 -120.723499 320 20054ft 306kts
20-May-20 16:35 35.296022 -120.744004 4 20054ft 324kts
20-May-20 16:36 35.383842 -120.718713 8 20049ft 326kts
20-May-20 16:37 35.470875 -120.690763 8 20039ft 326kts
20-May-20 16:38 35.558037 -120.663263 8 20082ft 324kts
20-May-20 16:39 35.645195 -120.636901 1 20089ft 320kts
20-May-20 16:40 35.722273 -120.677281 322 20092ft 306kts
20-May-20 16:41 35.788894 -120.742224 319 20092ft 306kts
20-May-20 16:42 35.854004 -120.807346 319 20095ft 306kts
20-May-20 16:43 35.918905 -120.872031 319 20099ft 306kts
20-May-20 16:44 35.984287 -120.937382 319 20105ft 306kts
20-May-20 16:45 36.050345 -121.002092 321 20112ft 307kts
20-May-20 16:46 36.117169 -121.064835 321 20122ft 307kts
20-May-20 16:47 36.184015 -121.128479 321 20132ft 307kts
20-May-20 16:48 36.251505 -121.192889 321 20144ft 307kts
20-May-20 16:49 36.318833 -121.257399 321 20159ft 307kts
20-May-20 16:50 36.386222 -121.322080 321 20169ft 307kts
20-May-20 16:51 36.453124 -121.386618 321 20178ft 307kts
20-May-20 16:52 36.524506 -121.442090 338 19823ft 309kts
20-May-20 16:53 36.604541 -121.475414 339 18557ft 297kts
20-May-20 16:54 36.675997 -121.505773 339 16578ft 257kts
20-May-20 16:55 36.739367 -121.532724 340 14575ft 230kts
20-May-20 16:56 36.797050 -121.557275 341 12579ft 214kts
20-May-20 16:57 36.851645 -121.580370 341 10800ft 212kts
20-May-20 16:58 36.908942 -121.604486 341 9619ft 227kts
20-May-20 16:59 36.966512 -121.628943 341 8424ft 215kts
20-May-20 17:00 37.019137 -121.651302 341 7163ft 191kts
20-May-20 17:01 37.067063 -121.671671 341 5667ft 177kts
20-May-20 17:02 37.114828 -121.691762 340 4278ft 198kts
20-May-20 17:03 37.161341 -121.717060 325 4009ft 172kts
20-May-20 17:04 37.196984 -121.750327 320 3995ft 148kts
20-May-20 17:05 37.229027 -121.782958 320 3852ft 163kts
20-May-20 17:06 37.263205 -121.822547 314 3045ft 175kts
20-May-20 17:07 37.296427 -121.858529 322 1947ft 143kts
20-May-20 17:08 37.326068 -121.889795 319 971ft 137kts
20-May-20 17:09 37.354266 -121.920730 321 148ft 128kts
20-May-20 17:10 37.365520 -121.931405 26 70ft 3kts
20-May-20 17:11 37.365716 -121.931235 41 69ft 0kts

Navigation Log

Ident Type
Flight plan parsing failed, navigation log unavailable